createdAt,value
2022-11-28T00:01:41.249Z,16.57
2022-11-28T00:04:09.942Z,15.20
2022-11-28T00:06:46.762Z,15.67
2022-11-28T00:09:15.396Z,15.37
2022-11-28T00:11:44.739Z,15.27
2022-11-28T00:14:12.426Z,13.60
2022-11-28T00:16:39.687Z,15.40
2022-11-28T00:19:07.739Z,14.20
2022-11-28T00:21:35.579Z,14.83
2022-11-28T00:24:03.036Z,14.70
2022-11-28T00:26:37.804Z,14.90
2022-11-28T00:29:07.057Z,13.87
2022-11-28T00:31:42.376Z,14.97
2022-11-28T00:34:12.910Z,13.97
2022-11-28T00:36:40.085Z,14.37
2022-11-28T00:39:07.441Z,14.20
2022-11-28T00:41:35.402Z,13.57
2022-11-28T00:44:02.469Z,12.00
2022-11-28T00:46:29.876Z,13.73
2022-11-28T00:48:58.687Z,13.57
2022-11-28T00:51:31.993Z,13.80
2022-11-28T00:54:02.419Z,13.03
2022-11-28T00:56:34.731Z,13.97
2022-11-28T00:59:01.859Z,13.47
2022-11-28T01:01:36.970Z,12.83
2022-11-28T01:04:08.890Z,12.07
2022-11-28T01:06:40.841Z,13.27
2022-11-28T01:09:21.233Z,12.60
2022-11-28T01:11:50.420Z,15.40
2022-11-28T01:14:20.761Z,12.83
2022-11-28T01:16:48.103Z,12.63
2022-11-28T01:19:15.528Z,13.83
2022-11-28T01:21:42.814Z,12.93
2022-11-28T01:24:10.605Z,13.37
2022-11-28T01:26:40.266Z,13.57
2022-11-28T01:29:08.854Z,13.90
2022-11-28T01:31:36.194Z,14.37
2022-11-28T01:34:03.691Z,13.97
2022-11-28T01:36:31.012Z,15.30
2022-11-28T01:38:58.510Z,13.77
2022-11-28T01:41:28.012Z,14.30
2022-11-28T01:44:06.018Z,13.83
2022-11-28T01:46:34.755Z,14.03
2022-11-28T01:49:13.083Z,14.50
2022-11-28T01:52:04.484Z,14.73
2022-11-28T01:54:33.570Z,13.77
2022-11-28T01:57:05.872Z,13.40
2022-11-28T01:59:38.681Z,13.50
2022-11-28T02:02:10.269Z,14.10
2022-11-28T02:04:37.631Z,12.20
2022-11-28T02:07:04.754Z,13.40
2022-11-28T02:09:31.790Z,12.40
2022-11-28T02:12:01.585Z,13.50
2022-11-28T02:15:03.762Z,12.10
2022-11-28T02:18:13.263Z,13.63
2022-11-28T02:20:57.344Z,13.20
2022-11-28T02:23:45.427Z,12.77
2022-11-28T02:26:43.233Z,12.40
2022-11-28T02:29:30.696Z,12.33
2022-11-28T02:32:16.390Z,11.47
2022-11-28T02:35:15.327Z,12.13
2022-11-28T02:37:45.433Z,12.60
2022-11-28T02:40:31.525Z,13.30
2022-11-28T02:43:20.625Z,12.80
2022-11-28T02:46:27.720Z,13.70
2022-11-28T02:49:06.783Z,12.47
2022-11-28T02:51:44.199Z,13.40
2022-11-28T02:54:16.016Z,11.67
2022-11-28T02:56:54.523Z,11.67
2022-11-28T02:59:49.427Z,12.70
2022-11-28T03:02:25.771Z,11.57
2022-11-28T03:05:08.485Z,11.57
2022-11-28T03:08:01.082Z,13.53
2022-11-28T03:10:43.338Z,10.90
2022-11-28T03:13:49.926Z,12.57
2022-11-28T03:16:31.437Z,10.60
2022-11-28T03:19:11.822Z,13.90
2022-11-28T03:22:03.602Z,12.80
2022-11-28T03:24:51.677Z,11.83
2022-11-28T03:27:32.199Z,12.13
2022-11-28T03:30:08.813Z,12.37
2022-11-28T03:32:39.655Z,12.03
2022-11-28T03:35:13.276Z,12.60
2022-11-28T03:37:48.532Z,11.83
2022-11-28T03:40:22.881Z,11.40
2022-11-28T03:43:05.108Z,10.70
2022-11-28T03:45:39.822Z,12.90
2022-11-28T03:48:34.910Z,11.17
2022-11-28T03:51:30.098Z,12.60
2022-11-28T03:54:17.739Z,12.60
2022-11-28T03:56:59.663Z,11.70
2022-11-28T03:59:54.303Z,12.20
2022-11-28T04:02:31.271Z,11.67
2022-11-28T04:05:12.037Z,12.57
2022-11-28T04:08:11.852Z,12.40
2022-11-28T04:10:53.139Z,11.30
2022-11-28T04:13:45.346Z,13.60
2022-11-28T04:16:59.847Z,11.73
2022-11-28T04:19:37.218Z,12.60
2022-11-28T04:22:32.981Z,13.87
2022-11-28T04:25:06.691Z,10.50
2022-11-28T04:27:39.886Z,11.20
2022-11-28T04:30:08.933Z,12.57
2022-11-28T04:32:41.568Z,11.03
2022-11-28T04:35:15.328Z,11.53
2022-11-28T04:37:48.848Z,11.53
2022-11-28T04:40:18.576Z,11.60
2022-11-28T04:42:54.127Z,13.33
2022-11-28T04:45:38.546Z,13.37
2022-11-28T04:48:06.341Z,11.73
2022-11-28T04:51:07.824Z,10.77
2022-11-28T04:53:57.218Z,12.80
2022-11-28T04:56:40.051Z,11.20
2022-11-28T04:59:08.793Z,11.33
2022-11-28T05:01:38.581Z,13.17
2022-11-28T05:04:06.560Z,12.77
2022-11-28T05:06:36.886Z,12.53
2022-11-28T05:09:04.954Z,12.50
2022-11-28T05:11:32.400Z,13.60
2022-11-28T05:13:59.447Z,12.17
2022-11-28T05:16:26.761Z,13.57
2022-11-28T05:18:53.872Z,14.43
2022-11-28T05:21:21.119Z,13.27
2022-11-28T05:23:48.623Z,12.83
2022-11-28T05:26:19.935Z,13.80
2022-11-28T05:28:50.937Z,14.13
2022-11-28T05:31:22.251Z,12.67
2022-11-28T05:33:49.486Z,13.20
2022-11-28T05:36:17.593Z,13.40
2022-11-28T05:38:45.053Z,13.90
2022-11-28T05:41:23.421Z,13.47
2022-11-28T05:43:50.794Z,14.33
2022-11-28T05:46:19.116Z,13.37
2022-11-28T05:48:46.595Z,13.97
2022-11-28T05:51:13.862Z,11.63
2022-11-28T05:53:41.009Z,13.00
2022-11-28T05:56:14.630Z,12.80
2022-11-28T05:58:42.555Z,12.50
2022-11-28T06:01:19.971Z,14.13
2022-11-28T06:03:47.836Z,12.73
2022-11-28T06:06:22.374Z,12.60
2022-11-28T06:08:51.626Z,14.73
2022-11-28T06:11:23.268Z,12.67
2022-11-28T06:13:50.669Z,13.93
2022-11-28T06:16:21.623Z,13.50
2022-11-28T06:18:55.969Z,13.57
2022-11-28T06:21:24.309Z,12.70
2022-11-28T06:23:51.780Z,12.80
2022-11-28T06:26:23.034Z,15.87
2022-11-28T06:28:50.647Z,14.00
2022-11-28T06:31:25.079Z,12.60
2022-11-28T06:33:52.197Z,13.30
2022-11-28T06:36:20.175Z,12.97
2022-11-28T06:38:47.815Z,13.77
2022-11-28T06:41:17.909Z,12.87
2022-11-28T06:43:45.076Z,13.07
2022-11-28T06:46:16.426Z,12.47
2022-11-28T06:48:45.039Z,14.07
2022-11-28T06:51:13.294Z,16.03
2022-11-28T06:53:41.143Z,12.37
2022-11-28T06:56:14.212Z,11.73
2022-11-28T06:58:42.761Z,11.60
2022-11-28T07:01:17.144Z,11.73
2022-11-28T07:03:44.904Z,11.90
2022-11-28T07:06:14.804Z,11.57
2022-11-28T07:08:42.663Z,11.17
2022-11-28T07:11:17.564Z,11.37
2022-11-28T07:13:46.697Z,12.30
2022-11-28T07:16:17.782Z,12.40
2022-11-28T07:18:45.345Z,11.43
2022-11-28T07:21:14.718Z,12.33
2022-11-28T07:23:43.358Z,12.03
2022-11-28T07:26:12.932Z,11.63
2022-11-28T07:28:41.095Z,10.23
2022-11-28T07:31:10.956Z,11.63
2022-11-28T07:33:40.191Z,11.50
2022-11-28T07:36:26.174Z,10.53
2022-11-28T07:39:02.859Z,10.73
2022-11-28T07:41:30.205Z,10.87
2022-11-28T07:44:00.483Z,10.80
2022-11-28T07:46:30.264Z,11.07
2022-11-28T07:48:57.536Z,10.43
2022-11-28T07:51:28.715Z,10.70
2022-11-28T07:53:56.514Z,11.87
2022-11-28T07:56:34.989Z,10.53
2022-11-28T07:59:07.620Z,9.53
2022-11-28T08:01:36.230Z,10.10
2022-11-28T08:04:07.337Z,10.33
2022-11-28T08:06:40.017Z,9.60
2022-11-28T08:09:08.150Z,10.70
2022-11-28T08:11:36.160Z,9.20
2022-11-28T08:14:03.681Z,9.67
2022-11-28T08:16:31.499Z,10.20
2022-11-28T08:19:02.145Z,9.60
2022-11-28T08:21:32.915Z,9.07
2022-11-28T08:24:01.880Z,9.77
2022-11-28T08:26:31.457Z,9.00
2022-11-28T08:29:04.007Z,10.43
2022-11-28T08:31:38.322Z,8.23
2022-11-28T08:34:09.333Z,11.10
2022-11-28T08:36:37.356Z,8.60
2022-11-28T08:41:57.392Z,9.40
2022-11-28T08:44:25.016Z,9.07
2022-11-28T08:46:52.573Z,9.50
2022-11-28T08:49:19.905Z,8.97
2022-11-28T08:51:47.102Z,8.90
2022-11-28T08:54:14.176Z,8.83
2022-11-28T08:56:41.343Z,9.77
2022-11-28T08:59:09.396Z,9.70
2022-11-28T09:01:36.524Z,9.33
2022-11-28T09:04:04.857Z,10.10
2022-11-28T09:06:31.937Z,8.60
2022-11-28T09:08:58.984Z,8.90
2022-11-28T09:11:26.115Z,8.73
2022-11-28T09:13:53.431Z,8.80
2022-11-28T09:16:20.482Z,9.43
2022-11-28T09:18:47.675Z,9.80
2022-11-28T09:21:16.121Z,9.90
2022-11-28T09:23:45.439Z,9.87
2022-11-28T09:26:19.426Z,10.27
2022-11-28T09:28:47.574Z,9.97
2022-11-28T09:31:17.918Z,10.63
2022-11-28T09:33:46.554Z,9.97
2022-11-28T09:36:17.900Z,9.97
2022-11-28T09:38:45.445Z,9.73
2022-11-28T09:42:01.206Z,10.20
2022-11-28T09:45:06.991Z,9.50
2022-11-28T09:47:36.954Z,10.07
2022-11-28T09:50:21.253Z,10.43
2022-11-28T09:53:28.264Z,11.23
2022-11-28T09:56:02.584Z,10.33
2022-11-28T09:58:43.716Z,10.50
2022-11-28T10:01:45.188Z,10.43
2022-11-28T10:04:47.904Z,10.87
2022-11-28T10:07:45.945Z,11.17
2022-11-28T10:10:31.005Z,11.37
2022-11-28T10:13:22.634Z,11.53
2022-11-28T10:16:27.416Z,11.83
2022-11-28T10:19:01.379Z,11.90
2022-11-28T10:21:59.296Z,11.97
2022-11-28T10:24:41.882Z,13.07
2022-11-28T10:27:13.735Z,12.93
2022-11-28T10:29:53.993Z,12.00
2022-11-28T10:32:34.843Z,12.37
2022-11-28T10:35:09.696Z,12.53
2022-11-28T10:37:39.056Z,13.00
2022-11-28T10:40:32.962Z,13.80
2022-11-28T10:43:44.644Z,13.07
2022-11-28T10:46:54.538Z,12.00
2022-11-28T10:50:30.791Z,13.03
2022-11-28T10:53:15.641Z,12.73
2022-11-28T10:56:33.154Z,13.20
2022-11-28T10:59:38.839Z,13.60
2022-11-28T11:02:55.526Z,11.73
2022-11-28T11:05:28.842Z,13.40
2022-11-28T11:08:20.248Z,12.93
2022-11-28T11:11:04.353Z,12.40
2022-11-28T11:13:56.463Z,13.13
2022-11-28T11:16:23.922Z,12.67
2022-11-28T11:18:55.064Z,14.23
2022-11-28T11:21:28.593Z,12.87
2022-11-28T11:24:31.643Z,14.17
2022-11-28T11:27:18.442Z,13.77
2022-11-28T11:29:49.256Z,12.27
2022-11-28T11:32:30.003Z,14.60
2022-11-28T11:34:59.164Z,14.00
2022-11-28T11:37:33.643Z,14.10
2022-11-28T11:40:03.036Z,12.90
2022-11-28T11:42:32.952Z,14.07
2022-11-28T11:45:33.503Z,15.83
2022-11-28T11:48:01.954Z,15.13
2022-11-28T11:50:31.513Z,16.93
2022-11-28T11:53:11.388Z,14.30
2022-11-28T11:55:54.823Z,14.33
2022-11-28T11:58:43.419Z,15.50
2022-11-28T12:01:13.704Z,13.67
2022-11-28T12:03:59.025Z,13.67
2022-11-28T12:06:34.387Z,13.40
2022-11-28T12:09:07.423Z,13.43
2022-11-28T12:11:45.483Z,13.87
2022-11-28T12:14:38.732Z,12.97
2022-11-28T12:17:47.336Z,13.77
2022-11-28T12:20:49.864Z,13.50
2022-11-28T12:23:57.413Z,14.23
2022-11-28T12:26:51.754Z,14.40
2022-11-28T12:29:44.504Z,14.17
2022-11-28T12:32:49.935Z,17.90
2022-11-28T12:36:10.159Z,14.73
2022-11-28T12:38:57.510Z,14.27
2022-11-28T12:42:05.621Z,13.80
2022-11-28T12:45:06.195Z,13.50
2022-11-28T12:48:14.963Z,13.37
2022-11-28T12:51:16.647Z,14.37
2022-11-28T12:54:05.718Z,14.20
2022-11-28T12:56:42.390Z,13.40
2022-11-28T12:59:53.498Z,13.37
2022-11-28T13:02:39.696Z,13.47
2022-11-28T13:05:35.847Z,12.20
2022-11-28T13:08:12.009Z,12.77
2022-11-28T13:11:14.428Z,18.87
2022-11-28T13:13:50.204Z,15.57
2022-11-28T13:16:22.075Z,17.97
2022-11-28T13:19:18.228Z,16.60
2022-11-28T13:22:00.399Z,17.67
2022-11-28T13:24:39.430Z,17.20
2022-11-28T13:27:36.921Z,15.53
2022-11-28T13:30:19.036Z,16.77
2022-11-28T13:32:56.614Z,15.13
2022-11-28T13:35:24.602Z,15.57
2022-11-28T13:41:53.217Z,17.00
2022-11-28T13:44:24.330Z,14.43
2022-11-28T13:46:51.768Z,15.43
2022-11-28T13:49:27.656Z,15.37
2022-11-28T13:52:31.733Z,16.97
2022-11-28T13:54:58.839Z,13.93
2022-11-28T13:57:39.795Z,14.30
2022-11-28T14:00:24.040Z,13.67
2022-11-28T14:02:59.976Z,14.53
2022-11-28T14:05:38.016Z,13.53
2022-11-28T14:08:07.169Z,14.97
2022-11-28T14:11:27.276Z,15.00
2022-11-28T14:14:09.935Z,15.37
2022-11-28T14:17:19.107Z,18.70
2022-11-28T14:20:33.927Z,15.70
2022-11-28T14:23:29.590Z,15.80
2022-11-28T14:25:57.256Z,15.33
2022-11-28T14:28:37.737Z,14.47
2022-11-28T14:31:32.459Z,16.60
2022-11-28T14:34:47.851Z,15.07
2022-11-28T14:37:40.432Z,14.90
2022-11-28T14:40:56.195Z,31.47
2022-11-28T14:43:35.276Z,16.70
2022-11-28T14:46:21.108Z,16.27
2022-11-28T14:49:16.981Z,14.93
2022-11-28T14:52:09.818Z,15.53
2022-11-28T14:54:44.651Z,16.30
2022-11-28T14:57:19.859Z,15.37
2022-11-28T14:59:50.227Z,15.60
2022-11-28T15:02:33.243Z,14.50
2022-11-28T15:05:39.828Z,14.17
2022-11-28T15:08:35.154Z,15.03
2022-11-28T15:11:59.744Z,17.10
2022-11-28T15:14:30.160Z,16.40
2022-11-28T15:17:06.431Z,16.57
2022-11-28T15:19:46.013Z,17.70
2022-11-28T15:22:39.012Z,15.30
2022-11-28T15:25:18.803Z,17.20
2022-11-28T15:27:46.242Z,15.87
2022-11-28T15:30:23.904Z,16.07
2022-11-28T15:32:59.889Z,17.27
2022-11-28T15:35:28.674Z,15.50
2022-11-28T15:37:58.233Z,16.30
2022-11-28T15:40:26.813Z,15.67
2022-11-28T15:42:54.420Z,16.63
2022-11-28T15:45:26.433Z,18.33
2022-11-28T15:47:56.085Z,17.87
2022-11-28T15:50:30.479Z,17.70
2022-11-28T15:53:18.056Z,18.10
2022-11-28T15:55:45.835Z,18.20
2022-11-28T15:58:32.440Z,15.37
2022-11-28T16:01:09.526Z,16.90
2022-11-28T16:04:05.840Z,18.10
2022-11-28T16:06:37.617Z,16.43
2022-11-28T16:09:28.253Z,18.73
2022-11-28T16:11:56.205Z,18.00
2022-11-28T16:14:32.403Z,19.57
2022-11-28T16:17:16.751Z,21.03
2022-11-28T16:19:44.843Z,18.20
2022-11-28T16:22:19.582Z,20.07
2022-11-28T16:24:55.366Z,19.10
2022-11-28T16:27:42.501Z,17.47
2022-11-28T16:30:38.095Z,17.80
2022-11-28T16:33:44.943Z,17.87
2022-11-28T16:36:36.899Z,18.10
2022-11-28T16:39:09.967Z,17.83
2022-11-28T16:41:54.708Z,17.33
2022-11-28T16:44:24.584Z,16.63
2022-11-28T16:46:56.054Z,17.07
2022-11-28T16:49:40.606Z,17.43
2022-11-28T16:52:23.814Z,18.80
2022-11-28T16:54:55.206Z,17.10
2022-11-28T16:57:25.463Z,17.33
2022-11-28T16:59:54.630Z,17.43
2022-11-28T17:02:25.792Z,19.17
2022-11-28T17:04:53.656Z,18.83
2022-11-28T17:07:25.145Z,18.60
2022-11-28T17:09:52.324Z,19.07
2022-11-28T17:12:29.462Z,29.60
2022-11-28T17:14:58.393Z,18.70
2022-11-28T17:17:25.803Z,18.60
2022-11-28T17:19:52.884Z,21.80
2022-11-28T17:22:40.406Z,20.50
2022-11-28T17:25:15.477Z,18.67
2022-11-28T17:27:43.068Z,19.40
2022-11-28T17:30:21.497Z,20.60
2022-11-28T17:32:48.594Z,18.47
2022-11-28T17:35:24.970Z,22.47
2022-11-28T17:37:52.029Z,21.17
2022-11-28T17:40:34.079Z,20.10
2022-11-28T17:43:01.478Z,19.93
2022-11-28T17:45:34.526Z,20.70
2022-11-28T17:48:01.877Z,20.67
2022-11-28T17:50:30.545Z,18.60
2022-11-28T17:52:57.837Z,20.80
2022-11-28T17:55:24.943Z,19.90
2022-11-28T17:57:53.784Z,21.13
2022-11-28T18:00:21.185Z,21.67
2022-11-28T18:02:48.477Z,22.00
2022-11-28T18:05:15.830Z,20.63
2022-11-28T18:07:42.953Z,19.20
2022-11-28T18:10:12.580Z,20.70
2022-11-28T18:12:39.678Z,21.50
2022-11-28T18:15:10.510Z,23.00
2022-11-28T18:17:38.419Z,20.27
2022-11-28T18:20:07.109Z,19.27
2022-11-28T18:22:34.287Z,21.60
2022-11-28T18:25:01.529Z,23.90
2022-11-28T18:27:29.599Z,21.00
2022-11-28T18:29:56.685Z,20.47
2022-11-28T18:32:23.872Z,19.60
2022-11-28T18:34:51.141Z,20.37
2022-11-28T18:37:18.295Z,19.40
2022-11-28T18:39:45.676Z,19.70
2022-11-28T18:42:13.112Z,20.47
2022-11-28T18:44:40.269Z,31.83
2022-11-28T18:47:07.301Z,27.00
2022-11-28T18:49:35.872Z,25.00
2022-11-28T18:52:03.489Z,25.93
2022-11-28T18:54:32.349Z,26.27
2022-11-28T18:57:00.181Z,31.40
2022-11-28T18:59:28.608Z,25.60
2022-11-28T19:01:55.946Z,22.83
2022-11-28T19:04:23.609Z,22.40
2022-11-28T19:06:53.830Z,21.50
2022-11-28T19:09:22.263Z,23.07
2022-11-28T19:11:49.377Z,24.27
2022-11-28T19:14:19.672Z,20.40
2022-11-28T19:16:49.281Z,23.47
2022-11-28T19:19:18.317Z,24.03
2022-11-28T19:21:48.538Z,23.67
2022-11-28T19:24:16.386Z,23.87
2022-11-28T19:26:43.499Z,22.90
2022-11-28T19:29:11.117Z,24.10
2022-11-28T19:31:41.893Z,23.30
2022-11-28T19:34:17.393Z,23.90
2022-11-28T19:36:50.144Z,23.53
2022-11-28T19:39:22.098Z,22.80
2022-11-28T19:41:51.519Z,24.23
2022-11-28T19:44:21.012Z,23.23
2022-11-28T19:46:48.515Z,22.83
2022-11-28T19:49:22.064Z,22.97
2022-11-28T19:51:50.969Z,24.03
2022-11-28T19:54:21.842Z,21.43
2022-11-28T19:56:50.007Z,20.30
2022-11-28T19:59:19.314Z,21.97
2022-11-28T20:01:49.091Z,23.07
2022-11-28T20:04:16.619Z,20.80
2022-11-28T20:06:43.716Z,21.50
2022-11-28T20:09:13.757Z,23.00
2022-11-28T20:11:43.659Z,21.10
2022-11-28T20:14:14.973Z,23.30
2022-11-28T20:16:42.928Z,22.60
2022-11-28T20:19:12.438Z,20.00
2022-11-28T20:21:40.286Z,23.10
2022-11-28T20:24:08.992Z,22.17
2022-11-28T20:26:40.584Z,22.80
2022-11-28T20:29:13.382Z,22.03
2022-11-28T20:31:47.254Z,20.83
2022-11-28T20:34:18.752Z,23.13
2022-11-28T20:36:52.725Z,24.03
2022-11-28T20:39:20.131Z,23.93
2022-11-28T20:41:47.421Z,23.50
2022-11-28T20:44:14.491Z,23.50
2022-11-28T20:46:44.003Z,24.20
2022-11-28T20:49:11.268Z,25.90
2022-11-28T20:51:38.409Z,24.20
2022-11-28T20:54:06.719Z,25.43
2022-11-28T20:57:05.063Z,24.03
2022-11-28T20:59:26.483Z,24.57
2022-11-28T21:01:53.645Z,23.53
2022-11-28T21:04:20.991Z,20.87
2022-11-28T21:06:49.292Z,20.53
2022-11-28T21:09:20.703Z,21.20
2022-11-28T21:11:57.954Z,18.80
2022-11-28T21:14:26.019Z,18.77
2022-11-28T21:16:53.170Z,18.00
2022-11-28T21:19:20.234Z,21.30
2022-11-28T21:21:47.296Z,20.93
2022-11-28T21:24:14.862Z,19.30
2022-11-28T21:26:46.564Z,17.87
2022-11-28T21:29:17.280Z,19.80
2022-11-28T21:31:45.857Z,19.93
2022-11-28T21:34:15.373Z,20.63
2022-11-28T21:36:43.010Z,18.43
2022-11-28T21:39:20.879Z,19.27
2022-11-28T21:41:48.898Z,18.60
2022-11-28T21:44:16.137Z,17.90
2022-11-28T21:46:43.287Z,18.20
2022-11-28T21:49:11.839Z,18.90
2022-11-28T21:51:40.756Z,19.27
2022-11-28T21:54:10.398Z,20.47
2022-11-28T21:56:39.180Z,17.90
2022-11-28T21:59:06.833Z,18.40
2022-11-28T22:01:34.486Z,18.60
2022-11-28T22:04:03.082Z,18.10
2022-11-28T22:06:31.657Z,19.67
2022-11-28T22:09:02.187Z,18.07
2022-11-28T22:11:33.725Z,17.77
2022-11-28T22:14:00.874Z,17.90
2022-11-28T22:16:29.624Z,17.77
2022-11-28T22:19:00.338Z,17.23
2022-11-28T22:24:14.741Z,18.70
2022-11-28T22:26:41.814Z,17.53
2022-11-28T22:29:09.198Z,15.70
2022-11-28T22:31:36.890Z,16.13
2022-11-28T22:34:04.173Z,16.90
2022-11-28T22:36:32.278Z,17.30
2022-11-28T22:38:59.548Z,16.80
2022-11-28T22:41:29.152Z,16.37
2022-11-28T22:44:01.831Z,17.87
2022-11-28T22:46:31.929Z,16.80
2022-11-28T22:49:03.989Z,16.63
2022-11-28T22:51:32.075Z,15.63
2022-11-28T22:54:01.333Z,17.17
2022-11-28T22:56:32.173Z,14.83
2022-11-28T22:59:00.800Z,15.40
2022-11-28T23:01:30.897Z,15.23
2022-11-28T23:03:59.115Z,15.67
2022-11-28T23:06:32.677Z,16.70
2022-11-28T23:09:07.793Z,15.63
2022-11-28T23:11:38.274Z,16.93
2022-11-28T23:14:06.262Z,16.73
2022-11-28T23:16:37.363Z,16.03
2022-11-28T23:19:11.586Z,14.83
2022-11-28T23:21:42.629Z,17.20
2022-11-28T23:24:15.704Z,16.50
2022-11-28T23:26:44.910Z,18.50
2022-11-28T23:29:13.778Z,16.93
2022-11-28T23:31:43.152Z,17.80
2022-11-28T23:34:11.804Z,17.60
2022-11-28T23:36:45.758Z,16.50
2022-11-28T23:39:22.427Z,16.70
2022-11-28T23:41:50.342Z,16.90
2022-11-28T23:44:19.956Z,15.57
2022-11-28T23:46:48.239Z,15.27
2022-11-28T23:49:15.639Z,15.40
2022-11-28T23:51:42.731Z,16.10
2022-11-28T23:54:11.272Z,15.17
2022-11-28T23:56:39.811Z,18.23
2022-11-28T23:59:09.587Z,15.63
